Great Falls International

Airport
ICAO code: 
KGTF
Summary
ICAO Region: 
NAM
Territory: 
Location: 
Great Falls, Cascade County, Montana,
Elevation: 
3680 ft
Coordinates: 
Aerial View: 
47° 28' 40.009" N, 111° 21' 32.94" W
Airport CFIT: 
Altimeter Temperature Error Correction
Airport RE: 
Hot and High Operations
Airport WX: 
Mountain Waves
Metar
Observation
KGTF 021353Z 24015G25KT 10SM CLR 13/04 A2980 RMK AO2 PK WND 23028/1337 SLP078 T01330044 $
Station
Great Falls, Great Falls International Airport
Date/Time
2021-12-02 13:53:00
Wind direction
240°
Wind speed
15 kts
Lowest cloud amount
n/a
Temperature
13.3°C
Dew point
4.4°C
Humidity
54%
Weather condition
n/a

Description

Great Falls International Airport is a joint civil-military public airport located within city limits, 5 km southwest of central Great Falls in Cascade County, Montana, USA. GTF serves the Great Falls area, as well as other communities throughout central Montana.

Climatology

Semi-arid climate (Köppen climate classification BSk) - Little summer precipitation, hot summers and cold winters, sometimes with large changes in temperature in a 24 hour period.

Runways

Designator Length Width Surface Rops
7/25 1309 23 ASP Yes/Yes
16/34 1938 46 ASP Yes/Yes
3/21 3201 46 ASP Yes/Yes
Airport map: 
Aerial View: 

SKYbrary Partners:

Safety knowledge contributed by: